Time;durP1;ratioP1;P1;durP2;ratioP2;P2;SDS_P1;SDS_P2;PMS_P1;PMS_P2;Temp;Humidity;BMP_temperature;BMP_pressure;BME280_temperature;BME280_humidity;BME280_pressure;Samples;Min_cycle;Max_cycle;Signal;HPM_P1;HPM_P2
2024/02/07 00:03:14;;;;;;;2.70;1.27;;;9.60;99.90;;;;;;10028160;28;19913;-67
2024/02/07 00:08:08;;;;;;;1.98;1.45;;;9.60;99.90;;;;;;10032541;28;20033;-67
2024/02/07 00:12:58;;;;;;;3.90;1.50;;;9.60;99.90;;;;;;10025272;28;20026;-66
2024/02/07 00:17:52;;;;;;;2.50;1.48;;;9.60;99.90;;;;;;10013878;28;20050;-67
2024/02/07 00:22:43;;;;;;;5.07;1.13;;;9.60;99.90;;;;;;10032360;28;20046;-68
2024/02/07 00:27:36;;;;;;;3.40;1.33;;;9.50;99.90;;;;;;10050016;28;20526;-66
2024/02/07 00:32:27;;;;;;;2.17;1.27;;;9.60;99.90;;;;;;10041522;28;20649;-68
2024/02/07 00:37:18;;;;;;;2.20;1.02;;;9.50;99.90;;;;;;10040759;28;20030;-67
2024/02/07 00:42:08;;;;;;;2.88;1.38;;;9.60;99.90;;;;;;10044197;28;20028;-67
2024/02/07 00:46:59;;;;;;;2.53;1.17;;;9.60;99.90;;;;;;10029161;28;20072;-67
2024/02/07 00:51:50;;;;;;;4.15;1.52;;;9.60;99.90;;;;;;10041375;28;20037;-68
2024/02/07 00:56:41;;;;;;;1.58;1.35;;;9.60;99.90;;;;;;10036423;28;20113;-68
2024/02/07 01:01:32;;;;;;;3.15;1.33;;;9.50;99.90;;;;;;10031984;28;20026;-69
2024/02/07 01:06:23;;;;;;;3.17;1.25;;;9.50;99.90;;;;;;10034237;28;20522;-67
2024/02/07 01:11:13;;;;;;;2.33;1.20;;;9.60;99.90;;;;;;10041983;28;20026;-67
2024/02/07 01:16:04;;;;;;;3.22;1.70;;;9.60;99.90;;;;;;10045228;28;20050;-67
2024/02/07 01:20:55;;;;;;;1.52;1.02;;;9.60;99.90;;;;;;10039643;28;20026;-67
2024/02/07 01:25:45;;;;;;;1.92;1.20;;;9.60;99.90;;;;;;10035499;28;20038;-67
2024/02/07 01:30:36;;;;;;;3.60;1.23;;;9.50;99.90;;;;;;10032031;28;20025;-68
2024/02/07 01:35:30;;;;;;;2.22;1.23;;;9.50;99.90;;;;;;10029147;28;20121;-67
2024/02/07 01:40:21;;;;;;;2.75;1.42;;;9.60;99.90;;;;;;10023021;28;20112;-67
2024/02/07 01:45:23;;;;;;;3.22;1.65;;;9.60;99.90;;;;;;10027729;28;20044;-66
2024/02/07 01:50:14;;;;;;;2.83;1.50;;;9.60;99.90;;;;;;10039930;28;20030;-67
2024/02/07 01:55:05;;;;;;;3.40;1.48;;;9.60;99.90;;;;;;10030623;28;20111;-67
2024/02/07 01:59:56;;;;;;;3.67;1.60;;;9.60;99.90;;;;;;10024656;28;20530;-67
2024/02/07 02:04:48;;;;;;;2.38;1.40;;;9.60;99.90;;;;;;10021461;28;20681;-67
2024/02/07 02:09:39;;;;;;;2.75;1.30;;;9.70;99.90;;;;;;10040534;28;20103;-68
2024/02/07 02:14:30;;;;;;;2.60;1.40;;;9.60;99.90;;;;;;10028825;28;20053;-68
2024/02/07 02:19:21;;;;;;;2.70;1.70;;;9.60;99.90;;;;;;10029033;28;20112;-67
2024/02/07 02:24:44;;;;;;;4.25;1.58;;;9.60;99.90;;;;;;10032011;28;20055;-67
2024/02/07 02:29:42;;;;;;;2.42;1.38;;;9.60;99.90;;;;;;10015243;28;20053;-68
2024/02/07 02:34:35;;;;;;;4.05;1.75;;;9.60;99.90;;;;;;10039579;28;20286;-66
2024/02/07 02:39:29;;;;;;;3.95;2.13;;;9.60;99.90;;;;;;10034260;28;20527;-67
2024/02/07 02:44:19;;;;;;;2.05;1.20;;;9.50;99.90;;;;;;10027779;28;20065;-67
2024/02/07 02:49:10;;;;;;;3.67;1.58;;;9.50;99.90;;;;;;10027324;28;20033;-67
2024/02/07 02:54:02;;;;;;;6.93;2.22;;;9.60;99.90;;;;;;10019240;28;20124;-69
2024/02/07 02:58:53;;;;;;;3.10;1.92;;;9.60;99.90;;;;;;10022655;28;20668;-67
2024/02/07 03:03:53;;;;;;;3.88;1.63;;;9.60;99.90;;;;;;10021452;28;20041;-66
2024/02/07 03:08:53;;;;;;;3.70;1.75;;;9.60;99.90;;;;;;10037207;28;20042;-68
2024/02/07 03:13:44;;;;;;;3.25;2.10;;;9.60;99.90;;;;;;10031415;28;20050;-68
2024/02/07 03:18:35;;;;;;;2.95;1.70;;;9.70;99.90;;;;;;10033332;28;20068;-68
2024/02/07 03:23:28;;;;;;;2.42;1.70;;;9.70;99.90;;;;;;10040883;28;20044;-67
2024/02/07 03:28:19;;;;;;;3.35;1.70;;;9.60;99.90;;;;;;10018129;28;20096;-67
2024/02/07 03:33:12;;;;;;;2.30;1.48;;;9.70;99.90;;;;;;10034307;28;20028;-67
2024/02/07 03:38:03;;;;;;;3.67;2.08;;;9.60;99.90;;;;;;10025209;28;20029;-68
2024/02/07 03:42:53;;;;;;;2.30;1.70;;;9.70;99.90;;;;;;10022486;28;20026;-68
2024/02/07 03:47:44;;;;;;;2.60;1.75;;;9.60;99.90;;;;;;10035146;28;20504;-67
2024/02/07 03:52:35;;;;;;;4.10;1.65;;;9.60;99.90;;;;;;10025158;28;20029;-68
2024/02/07 03:57:26;;;;;;;4.55;1.50;;;9.60;99.90;;;;;;10031633;28;20034;-67
2024/02/07 04:02:23;;;;;;;4.63;1.80;;;9.70;99.90;;;;;;10035394;28;20038;-67
2024/02/07 04:07:13;;;;;;;3.38;1.63;;;9.70;99.90;;;;;;10047111;28;20053;-67
2024/02/07 05:18:44;;;;;;;4.93;1.60;;;9.90;99.90;;;;;;10032509;28;20037;-67
2024/02/07 05:23:34;;;;;;;3.58;1.50;;;9.90;99.90;;;;;;10044308;28;20427;-67
2024/02/07 05:28:26;;;;;;;2.83;1.55;;;9.90;99.90;;;;;;10032206;28;20041;-66
2024/02/07 05:33:16;;;;;;;3.63;1.30;;;9.90;99.90;;;;;;10037503;28;20037;-68
2024/02/07 05:38:10;;;;;;;2.13;1.10;;;10.00;99.90;;;;;;10029532;28;20570;-66
2024/02/07 05:43:02;;;;;;;3.22;1.50;;;10.00;99.90;;;;;;10026379;28;20109;-67
2024/02/07 05:47:52;;;;;;;2.83;1.30;;;10.00;99.90;;;;;;10022732;28;20038;-67
2024/02/07 05:52:43;;;;;;;4.60;1.85;;;10.00;99.90;;;;;;10045097;28;20519;-67
2024/02/07 05:57:34;;;;;;;3.22;1.73;;;10.00;99.90;;;;;;10041216;28;20061;-67
2024/02/07 06:02:24;;;;;;;4.30;1.77;;;10.00;99.90;;;;;;10039359;28;20368;-67
2024/02/07 06:07:15;;;;;;;1.75;1.20;;;10.00;99.90;;;;;;10040536;28;20034;-68
2024/02/07 06:12:06;;;;;;;2.90;1.77;;;10.00;99.90;;;;;;10039058;28;20026;-73
2024/02/07 06:16:57;;;;;;;2.25;1.45;;;9.90;99.90;;;;;;10048739;28;20132;-68
2024/02/07 06:21:50;;;;;;;1.75;1.05;;;10.00;99.90;;;;;;10041227;28;20132;-68
2024/02/07 06:26:40;;;;;;;3.70;1.25;;;9.90;99.90;;;;;;10037602;28;20098;-67
2024/02/07 06:31:31;;;;;;;3.80;1.50;;;9.90;99.90;;;;;;10028660;28;20029;-67
2024/02/07 06:36:22;;;;;;;2.10;1.20;;;9.80;99.90;;;;;;10024647;28;20034;-67
2024/02/07 06:41:12;;;;;;;3.67;1.70;;;9.80;99.90;;;;;;10021822;28;20145;-68
2024/02/07 06:46:03;;;;;;;4.07;2.13;;;9.80;99.90;;;;;;10032459;28;20045;-68
2024/02/07 06:50:54;;;;;;;3.20;1.45;;;9.90;99.90;;;;;;10036982;28;20026;-68
2024/02/07 06:55:45;;;;;;;2.83;1.75;;;9.90;99.90;;;;;;10016537;28;20038;-68
2024/02/07 07:00:36;;;;;;;4.13;1.60;;;9.90;99.90;;;;;;10022362;28;20037;-68
2024/02/07 07:05:26;;;;;;;4.07;1.75;;;9.90;99.90;;;;;;10021894;28;20034;-67
2024/02/07 07:10:17;;;;;;;3.13;1.75;;;9.90;99.90;;;;;;10038720;28;20025;-68
2024/02/07 07:15:11;;;;;;;4.65;1.55;;;10.00;99.90;;;;;;10032246;28;20427;-67
2024/02/07 07:20:02;;;;;;;5.25;2.25;;;10.00;99.90;;;;;;10030394;28;20022;-67
2024/02/07 07:24:52;;;;;;;3.65;2.03;;;9.90;99.90;;;;;;10024228;28;20064;-67
2024/02/07 07:29:43;;;;;;;3.80;2.42;;;10.00;99.90;;;;;;10020499;28;20038;-67
2024/02/07 07:34:33;;;;;;;2.72;1.80;;;10.00;99.90;;;;;;10053441;28;20048;-68
2024/02/07 07:39:24;;;;;;;4.60;1.77;;;10.00;99.90;;;;;;10024855;28;20030;-69
2024/02/07 07:44:15;;;;;;;6.63;2.38;;;10.00;99.90;;;;;;10021053;28;20076;-68
2024/02/07 07:49:05;;;;;;;3.03;1.90;;;10.00;99.90;;;;;;10023053;28;20041;-67
2024/02/07 07:53:56;;;;;;;2.90;2.35;;;10.10;99.90;;;;;;10020081;28;20030;-67
2024/02/07 07:58:50;;;;;;;2.88;2.15;;;10.10;99.90;;;;;;10022203;28;20116;-68
2024/02/07 08:03:41;;;;;;;7.18;2.22;;;10.10;99.90;;;;;;10021830;28;20064;-68
2024/02/07 08:08:33;;;;;;;5.53;1.92;;;10.10;99.90;;;;;;10022376;28;20598;-73
2024/02/07 08:13:24;;;;;;;4.85;2.15;;;10.10;99.90;;;;;;10044282;28;20040;-77
2024/02/07 08:18:17;;;;;;;4.25;2.08;;;10.10;99.90;;;;;;10035441;28;20049;-80
2024/02/07 08:23:08;;;;;;;4.60;2.42;;;10.10;99.90;;;;;;10033892;28;20021;-77
2024/02/07 08:27:58;;;;;;;5.20;2.40;;;10.10;99.90;;;;;;10025702;28;20059;-68
2024/02/07 08:32:50;;;;;;;4.07;2.28;;;10.10;99.90;;;;;;10026207;28;20026;-68
2024/02/07 08:37:40;;;;;;;3.92;2.05;;;10.10;99.90;;;;;;10030458;28;20061;-72
2024/02/07 08:42:31;;;;;;;5.88;2.47;;;10.20;99.90;;;;;;10035285;28;20028;-74
2024/02/07 08:47:22;;;;;;;4.13;3.22;;;10.20;99.90;;;;;;10033533;28;20042;-71
2024/02/07 08:52:12;;;;;;;4.68;2.13;;;10.10;99.90;;;;;;10022731;28;20044;-80
2024/02/07 08:57:03;;;;;;;5.22;2.55;;;10.10;99.90;;;;;;10028544;28;20677;-75
2024/02/07 09:01:54;;;;;;;7.53;2.30;;;10.10;99.90;;;;;;10021294;28;20029;-70
2024/02/07 09:06:45;;;;;;;4.70;1.95;;;10.10;99.90;;;;;;10037464;28;20057;-71
2024/02/07 09:11:36;;;;;;;5.88;2.20;;;10.20;99.90;;;;;;10034749;28;20052;-71
2024/02/07 09:16:27;;;;;;;5.55;2.20;;;10.20;99.90;;;;;;10028762;28;20057;-72
2024/02/07 09:21:17;;;;;;;5.10;2.35;;;10.20;99.90;;;;;;10029473;28;20029;-73
2024/02/07 09:26:08;;;;;;;4.70;2.13;;;10.10;99.90;;;;;;10023284;28;20129;-69
2024/02/07 09:30:59;;;;;;;3.00;1.80;;;10.20;99.90;;;;;;10026637;28;20022;-70
2024/02/07 09:35:49;;;;;;;5.32;2.30;;;10.20;99.90;;;;;;10054636;28;20037;-69
2024/02/07 09:40:40;;;;;;;4.75;2.65;;;10.30;99.90;;;;;;10050716;28;20026;-68
2024/02/07 09:45:34;;;;;;;4.50;2.10;;;10.20;99.90;;;;;;10039918;28;20042;-67
2024/02/07 09:50:25;;;;;;;3.58;2.35;;;10.20;99.90;;;;;;10028687;28;20026;-68
2024/02/07 09:55:16;;;;;;;4.55;2.25;;;10.30;99.90;;;;;;10025346;28;20044;-68
2024/02/07 10:00:07;;;;;;;8.65;2.30;;;10.20;99.90;;;;;;10053265;28;20029;-69
2024/02/07 10:05:00;;;;;;;4.35;2.78;;;10.30;99.90;;;;;;10034258;28;20045;-70
2024/02/07 10:09:52;;;;;;;3.45;2.15;;;10.30;99.90;;;;;;10033588;28;20022;-69
2024/02/07 10:14:44;;;;;;;4.35;2.10;;;10.30;99.90;;;;;;10022934;28;20115;-68
2024/02/07 10:19:35;;;;;;;3.53;2.05;;;10.30;99.90;;;;;;10028442;28;20033;-69
2024/02/07 10:24:29;;;;;;;3.60;2.13;;;10.30;99.90;;;;;;10033203;28;20030;-68
2024/02/07 10:29:22;;;;;;;4.72;1.65;;;10.40;99.90;;;;;;10020397;28;20587;-68
2024/02/07 10:34:18;;;;;;;5.53;2.33;;;10.40;99.90;;;;;;10027597;28;20029;-68
2024/02/07 10:39:12;;;;;;;3.08;1.75;;;10.40;99.90;;;;;;10025287;28;20022;-68
2024/02/07 10:44:09;;;;;;;4.43;1.73;;;10.40;99.90;;;;;;10021352;28;20037;-69
2024/02/07 10:49:00;;;;;;;2.53;1.98;;;10.40;99.90;;;;;;10040313;28;20037;-71
2024/02/07 10:53:51;;;;;;;2.95;1.60;;;10.40;99.90;;;;;;10048245;28;20514;-69
2024/02/07 10:58:42;;;;;;;2.88;2.50;;;10.50;99.90;;;;;;10032309;28;20041;-73
2024/02/07 11:03:35;;;;;;;3.05;1.63;;;10.50;99.90;;;;;;10030964;28;20048;-75
2024/02/07 11:08:27;;;;;;;3.65;1.88;;;10.50;99.90;;;;;;10043031;28;20482;-75
2024/02/07 11:13:18;;;;;;;3.75;1.80;;;10.50;99.90;;;;;;10041112;28;20130;-75
2024/02/07 11:18:11;;;;;;;4.75;2.00;;;10.60;99.90;;;;;;10031804;28;20749;-72
2024/02/07 11:23:24;;;;;;;4.78;1.73;;;10.50;99.90;;;;;;10020270;28;20025;-73
2024/02/07 11:28:16;;;;;;;3.42;1.67;;;10.50;99.90;;;;;;10025846;28;20192;-73
2024/02/07 11:33:09;;;;;;;3.30;1.98;;;10.60;99.90;;;;;;10024238;28;20022;-75
2024/02/07 11:38:04;;;;;;;5.10;1.80;;;10.60;99.90;;;;;;10006363;28;20485;-74
2024/02/07 11:43:01;;;;;;;3.17;1.80;;;10.70;99.90;;;;;;10002336;28;20096;-73
2024/02/07 11:47:52;;;;;;;2.58;1.38;;;10.70;99.90;;;;;;10012331;28;20034;-77
2024/02/07 11:52:45;;;;;;;3.17;1.50;;;10.70;99.90;;;;;;10015955;28;20105;-74
2024/02/07 11:57:40;;;;;;;3.22;1.65;;;10.80;99.90;;;;;;10014804;28;20518;-75
2024/02/07 12:02:31;;;;;;;3.13;1.40;;;10.90;99.90;;;;;;10014892;28;20037;-76
2024/02/07 12:07:22;;;;;;;4.03;2.25;;;10.80;99.90;;;;;;10012097;28;20042;-75
2024/02/07 12:12:14;;;;;;;2.58;1.33;;;10.90;99.90;;;;;;10010219;28;20048;-70
2024/02/07 12:17:06;;;;;;;2.50;1.67;;;10.90;99.90;;;;;;10032632;28;20046;-78
2024/02/07 12:21:57;;;;;;;2.35;1.30;;;11.00;99.90;;;;;;10029645;28;20120;-73
2024/02/07 12:26:48;;;;;;;1.92;1.48;;;11.00;99.90;;;;;;10021629;28;20046;-73
2024/02/07 12:31:38;;;;;;;3.15;1.73;;;11.00;99.90;;;;;;10026517;28;20064;-76
2024/02/07 12:36:30;;;;;;;2.20;1.35;;;11.00;99.90;;;;;;10024290;28;20026;-77
2024/02/07 12:41:20;;;;;;;3.05;1.60;;;11.10;99.90;;;;;;10029629;28;20484;-73
2024/02/07 12:46:12;;;;;;;1.90;1.15;;;11.10;99.90;;;;;;10025634;28;20029;-72
2024/02/07 12:51:04;;;;;;;1.70;0.93;;;11.10;99.90;;;;;;10025943;28;20042;-71
2024/02/07 12:55:54;;;;;;;2.50;1.27;;;11.10;99.90;;;;;;10027435;28;20080;-68
2024/02/07 13:00:45;;;;;;;3.25;1.00;;;11.10;99.90;;;;;;10027937;28;20344;-73
2024/02/07 13:05:36;;;;;;;1.88;0.98;;;11.10;99.90;;;;;;10039147;28;20158;-68
2024/02/07 13:10:27;;;;;;;3.45;1.20;;;11.10;99.90;;;;;;10031971;28;20030;-68
2024/02/07 13:15:19;;;;;;;2.90;1.35;;;11.10;99.90;;;;;;10028191;28;20610;-68
2024/02/07 13:20:10;;;;;;;2.67;1.50;;;11.20;99.90;;;;;;10033965;28;20025;-67
2024/02/07 13:25:08;;;;;;;2.13;1.30;;;11.20;99.90;;;;;;10026988;28;20034;-73
2024/02/07 13:29:59;;;;;;;2.03;1.10;;;11.20;99.90;;;;;;10027047;28;20029;-73
2024/02/07 13:34:50;;;;;;;1.15;0.93;;;11.30;99.90;;;;;;10055408;28;20041;-67
2024/02/07 13:39:40;;;;;;;3.67;1.10;;;11.20;99.90;;;;;;10042732;28;20026;-70
2024/02/07 13:44:32;;;;;;;2.15;1.00;;;11.20;99.90;;;;;;10027999;28;20128;-74
2024/02/07 13:49:22;;;;;;;2.35;1.77;;;11.30;99.90;;;;;;10028821;28;20026;-70
2024/02/07 13:54:13;;;;;;;2.35;1.25;;;11.30;99.90;;;;;;10024796;28;20030;-69
2024/02/07 13:59:04;;;;;;;1.77;1.27;;;11.30;99.90;;;;;;10019458;28;20033;-71
2024/02/07 14:03:54;;;;;;;3.35;1.30;;;11.30;99.90;;;;;;10026138;28;20640;-69
2024/02/07 14:08:45;;;;;;;2.10;1.15;;;11.30;99.90;;;;;;10030494;28;20113;-68
2024/02/07 14:13:36;;;;;;;2.47;1.45;;;11.30;99.90;;;;;;10033293;28;20045;-69
2024/02/07 14:18:26;;;;;;;1.55;0.80;;;11.30;99.90;;;;;;10023147;28;20121;-68
2024/02/07 14:23:17;;;;;;;2.15;1.45;;;11.30;99.90;;;;;;10024175;28;20029;-68
2024/02/07 14:28:08;;;;;;;1.42;1.00;;;11.30;99.90;;;;;;10033138;28;20037;-69
2024/02/07 14:32:58;;;;;;;2.55;1.10;;;11.30;99.90;;;;;;10031183;28;20030;-69
2024/02/07 14:37:51;;;;;;;2.03;1.35;;;11.30;99.90;;;;;;10021181;28;20567;-69
2024/02/07 14:42:42;;;;;;;3.13;2.17;;;11.30;99.90;;;;;;10020494;28;20036;-71
2024/02/07 14:47:32;;;;;;;2.72;1.30;;;11.30;99.90;;;;;;10029615;28;20050;-68
2024/02/07 14:52:23;;;;;;;3.17;1.55;;;11.30;99.90;;;;;;10010980;28;20513;-70
2024/02/07 14:57:13;;;;;;;3.25;1.40;;;11.30;99.90;;;;;;10022671;28;20049;-69
2024/02/07 15:02:04;;;;;;;1.75;1.27;;;11.20;99.90;;;;;;10045014;28;20030;-72
2024/02/07 15:06:55;;;;;;;2.28;1.10;;;11.20;99.90;;;;;;10039986;28;20034;-70
2024/02/07 15:11:45;;;;;;;1.50;1.38;;;11.20;99.90;;;;;;10029873;28;20034;-69
2024/02/07 15:16:37;;;;;;;2.65;1.48;;;11.20;99.90;;;;;;10028436;28;20046;-68
2024/02/07 15:21:27;;;;;;;3.25;1.55;;;11.30;99.90;;;;;;10019403;28;20030;-69
2024/02/07 15:26:22;;;;;;;5.25;1.60;;;11.30;99.90;;;;;;10040551;28;20494;-69
2024/02/07 15:31:12;;;;;;;1.98;1.30;;;11.20;99.90;;;;;;10046475;28;20113;-68
2024/02/07 15:36:07;;;;;;;3.22;1.90;;;11.20;99.90;;;;;;10030245;28;20483;-69
2024/02/07 15:40:57;;;;;;;3.97;2.28;;;11.20;99.90;;;;;;10026007;28;20025;-69
2024/02/07 15:45:51;;;;;;;4.72;1.88;;;11.20;99.90;;;;;;10029722;28;20037;-68
2024/02/07 15:50:42;;;;;;;2.75;1.70;;;11.20;99.90;;;;;;10038161;28;20032;-74
2024/02/07 15:55:35;;;;;;;2.95;2.00;;;11.20;99.90;;;;;;10032064;28;20026;-69
2024/02/07 16:00:25;;;;;;;2.65;1.95;;;11.10;99.90;;;;;;10033125;28;20017;-69
2024/02/07 16:05:16;;;;;;;1.80;1.40;;;11.10;99.90;;;;;;10026276;28;20045;-73
2024/02/07 16:10:11;;;;;;;3.83;1.98;;;11.10;99.90;;;;;;10051014;28;20028;-69
2024/02/07 16:15:02;;;;;;;7.50;2.00;;;11.10;99.90;;;;;;10046667;28;20083;-70
2024/02/07 16:19:52;;;;;;;3.88;2.15;;;11.10;99.90;;;;;;10036692;28;20390;-70
2024/02/07 16:24:43;;;;;;;3.78;1.92;;;11.10;99.90;;;;;;10027502;28;20077;-73
2024/02/07 16:29:35;;;;;;;3.67;1.88;;;11.10;99.90;;;;;;10032800;28;20508;-70
2024/02/07 16:34:25;;;;;;;5.18;2.33;;;11.10;99.90;;;;;;10029350;28;20551;-72
2024/02/07 16:39:16;;;;;;;4.57;2.97;;;11.00;99.90;;;;;;10044464;28;20076;-72
2024/02/07 16:44:07;;;;;;;3.28;2.35;;;11.10;99.90;;;;;;10025830;28;20096;-74
2024/02/07 16:49:00;;;;;;;3.75;2.30;;;11.10;99.90;;;;;;10030951;28;20033;-72
2024/02/07 16:53:51;;;;;;;5.22;2.53;;;11.00;99.90;;;;;;10030312;28;20032;-76
2024/02/07 16:58:42;;;;;;;3.58;2.10;;;11.10;99.90;;;;;;10036895;28;20040;-72
2024/02/07 17:03:33;;;;;;;5.68;2.30;;;11.00;99.90;;;;;;10041224;28;20053;-72
2024/02/07 17:08:24;;;;;;;3.10;2.20;;;11.00;99.90;;;;;;10064751;28;20050;-78
2024/02/07 17:13:16;;;;;;;3.95;2.15;;;11.10;99.90;;;;;;10042150;28;20044;-83
2024/02/07 17:18:07;;;;;;;4.78;2.25;;;11.00;99.90;;;;;;10038091;28;20049;-80
2024/02/07 17:22:57;;;;;;;4.90;2.67;;;11.10;99.90;;;;;;10034296;28;20041;-81
2024/02/07 17:27:48;;;;;;;3.30;2.15;;;11.10;99.90;;;;;;10026453;28;20044;-71
2024/02/07 17:32:41;;;;;;;6.20;3.03;;;11.00;99.90;;;;;;10038030;28;20026;-67
2024/02/07 17:37:32;;;;;;;5.38;2.80;;;11.10;99.90;;;;;;10044781;28;20420;-68
2024/02/07 17:42:22;;;;;;;4.90;2.40;;;11.00;99.90;;;;;;10029110;28;20022;-67
2024/02/07 17:47:13;;;;;;;5.55;2.85;;;11.10;99.90;;;;;;10036268;28;20041;-71
2024/02/07 17:52:04;;;;;;;3.67;2.17;;;11.10;99.90;;;;;;10026914;28;20032;-77
2024/02/07 17:56:54;;;;;;;3.45;1.73;;;11.10;99.90;;;;;;10020096;28;20537;-71
2024/02/07 18:01:45;;;;;;;2.78;1.33;;;11.10;99.90;;;;;;10024886;28;20022;-78
2024/02/07 18:06:36;;;;;;;1.88;1.30;;;11.20;99.90;;;;;;10056224;28;20387;-82
2024/02/07 18:11:28;;;;;;;3.97;2.00;;;11.10;99.90;;;;;;10020670;28;20025;-73
2024/02/07 18:16:20;;;;;;;5.95;2.17;;;11.20;99.90;;;;;;10037091;28;20111;-73
2024/02/07 18:21:11;;;;;;;3.40;2.00;;;11.10;99.90;;;;;;10024602;28;20125;-82
2024/02/07 18:26:02;;;;;;;2.80;1.83;;;11.20;99.90;;;;;;10016668;28;20068;-76
2024/02/07 18:30:53;;;;;;;2.83;1.77;;;11.20;99.90;;;;;;10037543;28;20121;-78
2024/02/07 18:35:44;;;;;;;3.75;1.92;;;11.20;99.90;;;;;;10052221;28;20539;-77
2024/02/07 18:40:35;;;;;;;3.45;1.83;;;11.20;99.90;;;;;;10037367;28;20527;-76
2024/02/07 18:45:28;;;;;;;5.50;1.83;;;11.20;99.90;;;;;;10029850;28;20041;-77
2024/02/07 18:50:18;;;;;;;6.85;2.17;;;11.20;99.90;;;;;;10040959;28;20060;-77
2024/02/07 18:55:09;;;;;;;3.15;1.95;;;11.10;99.90;;;;;;10018897;28;20022;-78
2024/02/07 19:00:00;;;;;;;4.25;1.60;;;11.10;99.90;;;;;;10020938;28;20045;-76
2024/02/07 19:04:51;;;;;;;2.45;1.90;;;11.10;99.90;;;;;;10030600;28;20043;-77
2024/02/07 19:09:41;;;;;;;3.05;1.63;;;11.10;99.90;;;;;;10038292;28;20108;-74
2024/02/07 19:14:33;;;;;;;3.97;1.52;;;11.10;99.90;;;;;;10014226;28;20120;-74
2024/02/07 19:19:23;;;;;;;1.95;1.20;;;11.10;99.90;;;;;;10026365;28;20185;-71
2024/02/07 19:24:19;;;;;;;2.15;1.27;;;11.10;99.90;;;;;;10016852;28;20037;-71
2024/02/07 19:29:13;;;;;;;3.00;2.13;;;11.10;99.90;;;;;;10027453;28;20057;-74
2024/02/07 19:34:04;;;;;;;5.15;1.67;;;11.00;99.90;;;;;;10037271;28;20119;-74
2024/02/07 19:38:54;;;;;;;1.98;1.45;;;11.10;99.90;;;;;;10044040;28;20029;-71
2024/02/07 19:43:45;;;;;;;2.42;1.55;;;11.00;99.90;;;;;;10045010;28;20021;-74
2024/02/07 19:48:36;;;;;;;3.85;1.75;;;11.00;99.90;;;;;;10031319;28;20037;-72
2024/02/07 19:53:26;;;;;;;2.40;1.52;;;11.00;99.90;;;;;;10018425;28;20033;-73
2024/02/07 19:58:17;;;;;;;2.10;1.15;;;11.10;99.90;;;;;;10019563;28;20026;-71
2024/02/07 20:03:08;;;;;;;1.80;0.95;;;11.00;99.90;;;;;;10039685;28;20043;-71
2024/02/07 20:07:59;;;;;;;2.72;1.15;;;11.00;99.90;;;;;;10030881;28;20044;-71
2024/02/07 20:12:50;;;;;;;3.22;1.20;;;11.00;99.90;;;;;;10018686;28;20410;-71
2024/02/07 20:17:40;;;;;;;1.20;1.00;;;11.00;99.90;;;;;;10011545;28;20054;-72
2024/02/07 20:22:31;;;;;;;3.80;1.63;;;11.00;99.90;;;;;;10018117;28;20030;-73
2024/02/07 20:27:22;;;;;;;2.08;1.08;;;11.00;99.90;;;;;;10023817;28;20042;-73
2024/02/07 20:32:12;;;;;;;2.72;1.15;;;11.10;99.90;;;;;;10016891;28;20049;-70
2024/02/07 20:37:04;;;;;;;2.05;1.10;;;11.00;99.90;;;;;;10029047;28;20188;-72
2024/02/07 20:41:55;;;;;;;4.07;1.45;;;11.00;99.90;;;;;;10034715;28;20389;-72
2024/02/07 20:46:46;;;;;;;2.75;1.23;;;11.00;99.90;;;;;;10032153;28;20045;-72
2024/02/07 20:51:36;;;;;;;3.58;1.50;;;11.00;99.90;;;;;;10004601;28;20029;-69
2024/02/07 20:56:27;;;;;;;1.45;0.85;;;11.00;99.90;;;;;;10019370;28;20543;-69
2024/02/07 21:01:18;;;;;;;2.05;1.35;;;11.00;99.90;;;;;;10025250;28;20029;-69
2024/02/07 21:06:08;;;;;;;2.90;1.27;;;10.90;99.90;;;;;;10022901;28;20041;-70
2024/02/07 21:10:59;;;;;;;2.45;1.65;;;10.90;99.90;;;;;;10020967;28;20544;-71
2024/02/07 21:15:50;;;;;;;1.17;0.88;;;10.80;99.90;;;;;;10017375;28;20571;-70
2024/02/07 21:20:40;;;;;;;4.05;1.17;;;10.90;99.90;;;;;;10017195;28;20105;-72
2024/02/07 21:25:31;;;;;;;1.58;0.82;;;11.00;99.90;;;;;;10021828;28;20051;-71
2024/02/07 21:30:22;;;;;;;1.67;1.00;;;11.00;99.90;;;;;;10026776;28;20071;-72
2024/02/07 21:35:12;;;;;;;1.45;1.05;;;11.00;99.90;;;;;;10013366;28;20117;-74
2024/02/07 21:40:04;;;;;;;1.33;0.90;;;11.00;99.90;;;;;;10021473;28;20029;-72
2024/02/07 21:44:54;;;;;;;2.58;0.93;;;11.00;99.90;;;;;;10034786;28;20037;-72
2024/02/07 21:49:45;;;;;;;2.67;1.17;;;11.00;99.90;;;;;;10030040;28;20030;-75
2024/02/07 21:54:36;;;;;;;3.05;0.95;;;11.00;99.90;;;;;;10035690;28;20029;-75
2024/02/07 21:59:27;;;;;;;3.45;0.95;;;11.00;99.90;;;;;;10044553;28;20030;-76
2024/02/07 22:04:18;;;;;;;0.77;0.50;;;11.00;99.90;;;;;;10047287;28;20025;-71
2024/02/07 22:09:09;;;;;;;1.17;0.80;;;11.10;99.90;;;;;;10043323;28;20088;-71
2024/02/07 22:14:00;;;;;;;3.40;1.33;;;11.00;99.90;;;;;;10035240;28;20034;-72
2024/02/07 22:18:51;;;;;;;1.15;0.75;;;11.00;99.90;;;;;;10024928;28;20412;-75
2024/02/07 22:23:41;;;;;;;2.15;1.17;;;11.00;99.90;;;;;;10029913;28;20034;-73
2024/02/07 22:28:32;;;;;;;2.50;0.77;;;11.10;99.90;;;;;;10030731;28;20068;-72
2024/02/07 22:33:23;;;;;;;1.08;0.77;;;11.00;99.90;;;;;;10031631;28;20053;-71
2024/02/07 22:38:13;;;;;;;1.20;0.80;;;11.10;99.90;;;;;;10032575;28;20057;-69
2024/02/07 22:43:04;;;;;;;1.15;0.63;;;11.10;99.90;;;;;;10028791;28;20093;-70
2024/02/07 22:47:56;;;;;;;3.42;1.00;;;11.00;99.90;;;;;;10015296;28;20042;-71
2024/02/07 22:52:46;;;;;;;2.20;0.90;;;11.00;99.90;;;;;;10016647;28;20022;-73
2024/02/07 22:57:37;;;;;;;2.20;0.88;;;11.10;99.90;;;;;;10022916;28;20624;-76
2024/02/07 23:02:28;;;;;;;1.38;1.00;;;11.10;99.90;;;;;;10020075;28;20033;-73
2024/02/07 23:07:18;;;;;;;1.05;0.77;;;11.10;99.90;;;;;;10035542;28;20141;-74
2024/02/07 23:12:12;;;;;;;1.90;1.10;;;11.00;99.90;;;;;;10026421;28;20018;-71
2024/02/07 23:17:03;;;;;;;0.88;0.68;;;11.10;99.90;;;;;;10039559;28;20068;-71
2024/02/07 23:21:57;;;;;;;1.08;0.63;;;11.10;99.90;;;;;;10031531;28;20029;-72
2024/02/07 23:26:49;;;;;;;1.65;0.60;;;11.10;99.90;;;;;;10019525;28;20045;-75
2024/02/07 23:31:40;;;;;;;1.65;1.02;;;11.10;99.90;;;;;;10022897;28;20045;-74
2024/02/07 23:36:30;;;;;;;0.88;0.57;;;11.20;99.90;;;;;;10039916;28;20044;-71
2024/02/07 23:41:21;;;;;;;1.15;0.68;;;11.20;99.90;;;;;;10021435;28;20037;-73
2024/02/07 23:46:13;;;;;;;0.93;0.55;;;11.20;99.90;;;;;;10030977;28;20045;-72
2024/02/07 23:51:05;;;;;;;1.63;0.80;;;11.20;99.90;;;;;;10027244;28;20022;-73
2024/02/07 23:55:56;;;;;;;1.85;0.88;;;11.20;99.90;;;;;;10015385;28;20080;-71
